sensor_id;sensor_type;location;lat;lon;timestamp;temperature;humidity
55211;DHT22;41082;52.822;6.666;2023-03-23T00:04:51;11.50;99.90
55211;DHT22;41082;52.822;6.666;2023-03-23T00:07:21;11.50;99.90
55211;DHT22;41082;52.822;6.666;2023-03-23T00:09:53;11.50;99.90
55211;DHT22;41082;52.822;6.666;2023-03-23T00:12:21;11.50;99.90
55211;DHT22;41082;52.822;6.666;2023-03-23T00:15:05;11.50;99.90
55211;DHT22;41082;52.822;6.666;2023-03-23T00:17:32;11.50;99.90
55211;DHT22;41082;52.822;6.666;2023-03-23T00:20:01;11.50;99.90
55211;DHT22;41082;52.822;6.666;2023-03-23T00:22:30;11.50;99.90
55211;DHT22;41082;52.822;6.666;2023-03-23T00:24:56;11.50;99.90
55211;DHT22;41082;52.822;6.666;2023-03-23T00:27:22;11.50;99.90
55211;DHT22;41082;52.822;6.666;2023-03-23T00:29:51;11.50;99.90
55211;DHT22;41082;52.822;6.666;2023-03-23T00:32:21;11.50;99.90
55211;DHT22;41082;52.822;6.666;2023-03-23T00:34:54;11.50;99.90
55211;DHT22;41082;52.822;6.666;2023-03-23T00:37:21;11.50;99.90
55211;DHT22;41082;52.822;6.666;2023-03-23T00:39:46;11.50;99.90
55211;DHT22;41082;52.822;6.666;2023-03-23T00:42:15;11.40;99.90
55211;DHT22;41082;52.822;6.666;2023-03-23T00:44:42;11.50;99.90
55211;DHT22;41082;52.822;6.666;2023-03-23T00:47:09;11.50;99.90
55211;DHT22;41082;52.822;6.666;2023-03-23T00:49:36;11.50;99.90
55211;DHT22;41082;52.822;6.666;2023-03-23T00:52:02;11.40;99.90
55211;DHT22;41082;52.822;6.666;2023-03-23T00:54:28;11.40;99.90
55211;DHT22;41082;52.822;6.666;2023-03-23T00:56:54;11.40;99.90
55211;DHT22;41082;52.822;6.666;2023-03-23T00:59:21;11.40;99.90
55211;DHT22;41082;52.822;6.666;2023-03-23T01:01:47;11.40;99.90
55211;DHT22;41082;52.822;6.666;2023-03-23T01:04:13;11.40;99.90
55211;DHT22;41082;52.822;6.666;2023-03-23T01:06:42;11.40;99.90
55211;DHT22;41082;52.822;6.666;2023-03-23T01:09:11;11.40;99.90
55211;DHT22;41082;52.822;6.666;2023-03-23T01:11:40;11.40;99.90
55211;DHT22;41082;52.822;6.666;2023-03-23T01:14:05;11.40;99.90
55211;DHT22;41082;52.822;6.666;2023-03-23T01:16:31;11.40;99.90
55211;DHT22;41082;52.822;6.666;2023-03-23T01:18:56;11.30;99.90
55211;DHT22;41082;52.822;6.666;2023-03-23T01:21:22;11.40;99.90
55211;DHT22;41082;52.822;6.666;2023-03-23T01:23:48;11.30;99.90
55211;DHT22;41082;52.822;6.666;2023-03-23T01:26:16;11.40;99.90
55211;DHT22;41082;52.822;6.666;2023-03-23T01:28:43;11.40;99.90
55211;DHT22;41082;52.822;6.666;2023-03-23T01:31:13;11.40;99.90
55211;DHT22;41082;52.822;6.666;2023-03-23T01:33:40;11.30;99.90
55211;DHT22;41082;52.822;6.666;2023-03-23T01:36:09;11.30;99.90
55211;DHT22;41082;52.822;6.666;2023-03-23T01:38:35;11.30;99.90
55211;DHT22;41082;52.822;6.666;2023-03-23T01:41:02;11.40;99.90
55211;DHT22;41082;52.822;6.666;2023-03-23T01:43:28;11.30;99.90
55211;DHT22;41082;52.822;6.666;2023-03-23T01:45:53;11.30;99.90
55211;DHT22;41082;52.822;6.666;2023-03-23T01:48:27;11.30;99.90
55211;DHT22;41082;52.822;6.666;2023-03-23T01:51:07;11.30;99.90
55211;DHT22;41082;52.822;6.666;2023-03-23T01:53:37;11.30;99.90
55211;DHT22;41082;52.822;6.666;2023-03-23T01:56:05;11.40;99.90
55211;DHT22;41082;52.822;6.666;2023-03-23T01:58:33;11.40;99.90
55211;DHT22;41082;52.822;6.666;2023-03-23T02:01:03;11.40;99.90
55211;DHT22;41082;52.822;6.666;2023-03-23T02:03:31;11.40;99.90
55211;DHT22;41082;52.822;6.666;2023-03-23T02:05:58;11.40;99.90
55211;DHT22;41082;52.822;6.666;2023-03-23T02:08:26;11.40;99.90
55211;DHT22;41082;52.822;6.666;2023-03-23T02:10:53;11.40;99.90
55211;DHT22;41082;52.822;6.666;2023-03-23T02:13:19;11.40;99.90
55211;DHT22;41082;52.822;6.666;2023-03-23T02:24:28;11.40;99.90
55211;DHT22;41082;52.822;6.666;2023-03-23T02:35:38;11.50;99.90
55211;DHT22;41082;52.822;6.666;2023-03-23T02:38:10;11.40;99.90
55211;DHT22;41082;52.822;6.666;2023-03-23T02:40:46;11.40;99.90
55211;DHT22;41082;52.822;6.666;2023-03-23T02:43:20;11.40;99.90
55211;DHT22;41082;52.822;6.666;2023-03-23T02:45:47;11.40;99.90
55211;DHT22;41082;52.822;6.666;2023-03-23T02:48:17;11.40;99.90
55211;DHT22;41082;52.822;6.666;2023-03-23T02:50:47;11.40;99.90
55211;DHT22;41082;52.822;6.666;2023-03-23T02:53:18;11.40;99.90
55211;DHT22;41082;52.822;6.666;2023-03-23T02:55:44;11.40;99.90
55211;DHT22;41082;52.822;6.666;2023-03-23T02:58:12;11.40;99.90
55211;DHT22;41082;52.822;6.666;2023-03-23T03:00:38;11.40;99.90
55211;DHT22;41082;52.822;6.666;2023-03-23T03:03:06;11.40;99.90
55211;DHT22;41082;52.822;6.666;2023-03-23T03:08:52;11.40;99.90
55211;DHT22;41082;52.822;6.666;2023-03-23T03:11:21;11.40;99.90
55211;DHT22;41082;52.822;6.666;2023-03-23T03:14:08;11.50;99.90
55211;DHT22;41082;52.822;6.666;2023-03-23T03:16:44;11.40;99.90
55211;DHT22;41082;52.822;6.666;2023-03-23T03:19:24;11.50;99.90
55211;DHT22;41082;52.822;6.666;2023-03-23T03:21:52;11.50;99.90
55211;DHT22;41082;52.822;6.666;2023-03-23T03:24:21;11.50;99.90
55211;DHT22;41082;52.822;6.666;2023-03-23T03:26:50;11.50;99.90
55211;DHT22;41082;52.822;6.666;2023-03-23T03:29:20;11.50;99.90
55211;DHT22;41082;52.822;6.666;2023-03-23T03:31:47;11.50;99.90
55211;DHT22;41082;52.822;6.666;2023-03-23T03:34:15;11.50;99.90
55211;DHT22;41082;52.822;6.666;2023-03-23T03:36:44;11.50;99.90
55211;DHT22;41082;52.822;6.666;2023-03-23T03:39:12;11.50;99.90
55211;DHT22;41082;52.822;6.666;2023-03-23T03:41:38;11.50;99.90
55211;DHT22;41082;52.822;6.666;2023-03-23T03:44:04;11.50;99.90
55211;DHT22;41082;52.822;6.666;2023-03-23T03:46:31;11.60;99.90
55211;DHT22;41082;52.822;6.666;2023-03-23T03:49:02;11.60;99.90
55211;DHT22;41082;52.822;6.666;2023-03-23T03:51:29;11.60;99.90
55211;DHT22;41082;52.822;6.666;2023-03-23T03:53:55;11.60;99.90
55211;DHT22;41082;52.822;6.666;2023-03-23T03:56:22;11.60;99.90
55211;DHT22;41082;52.822;6.666;2023-03-23T03:58:49;11.60;99.90
55211;DHT22;41082;52.822;6.666;2023-03-23T04:01:16;11.70;99.90
55211;DHT22;41082;52.822;6.666;2023-03-23T04:03:42;11.70;99.90
55211;DHT22;41082;52.822;6.666;2023-03-23T04:06:08;11.70;99.90
55211;DHT22;41082;52.822;6.666;2023-03-23T04:08:36;11.70;99.90
55211;DHT22;41082;52.822;6.666;2023-03-23T04:11:03;11.70;99.90
55211;DHT22;41082;52.822;6.666;2023-03-23T04:13:29;11.70;99.90
55211;DHT22;41082;52.822;6.666;2023-03-23T04:15:55;11.70;99.90
55211;DHT22;41082;52.822;6.666;2023-03-23T04:18:21;11.70;99.90
55211;DHT22;41082;52.822;6.666;2023-03-23T04:20:48;11.80;99.90
55211;DHT22;41082;52.822;6.666;2023-03-23T04:23:16;11.70;99.90
55211;DHT22;41082;52.822;6.666;2023-03-23T04:25:46;11.70;99.90
55211;DHT22;41082;52.822;6.666;2023-03-23T04:28:13;11.70;99.90
55211;DHT22;41082;52.822;6.666;2023-03-23T04:30:38;11.80;99.90
55211;DHT22;41082;52.822;6.666;2023-03-23T04:33:09;11.80;99.90
55211;DHT22;41082;52.822;6.666;2023-03-23T04:35:40;11.80;99.90
55211;DHT22;41082;52.822;6.666;2023-03-23T04:38:07;11.80;99.90
55211;DHT22;41082;52.822;6.666;2023-03-23T04:40:36;11.80;99.90
55211;DHT22;41082;52.822;6.666;2023-03-23T04:43:02;11.70;99.90
55211;DHT22;41082;52.822;6.666;2023-03-23T04:45:32;11.70;99.90
55211;DHT22;41082;52.822;6.666;2023-03-23T04:47:58;11.80;99.90
55211;DHT22;41082;52.822;6.666;2023-03-23T04:50:29;11.80;99.90
55211;DHT22;41082;52.822;6.666;2023-03-23T04:52:56;11.80;99.90
55211;DHT22;41082;52.822;6.666;2023-03-23T04:55:24;11.80;99.90
55211;DHT22;41082;52.822;6.666;2023-03-23T04:57:50;11.80;99.90
55211;DHT22;41082;52.822;6.666;2023-03-23T05:00:16;11.70;99.90
55211;DHT22;41082;52.822;6.666;2023-03-23T05:02:44;11.70;99.90
55211;DHT22;41082;52.822;6.666;2023-03-23T05:05:13;11.70;99.90
55211;DHT22;41082;52.822;6.666;2023-03-23T05:07:39;11.70;99.90
55211;DHT22;41082;52.822;6.666;2023-03-23T05:10:06;11.70;99.90
55211;DHT22;41082;52.822;6.666;2023-03-23T05:12:33;11.70;99.90
55211;DHT22;41082;52.822;6.666;2023-03-23T05:14:59;11.70;99.90
55211;DHT22;41082;52.822;6.666;2023-03-23T05:17:25;11.60;99.90
55211;DHT22;41082;52.822;6.666;2023-03-23T05:19:52;11.40;99.90
55211;DHT22;41082;52.822;6.666;2023-03-23T05:22:17;11.30;99.90
55211;DHT22;41082;52.822;6.666;2023-03-23T05:24:46;11.20;99.90
55211;DHT22;41082;52.822;6.666;2023-03-23T05:27:12;11.10;99.90
55211;DHT22;41082;52.822;6.666;2023-03-23T05:29:38;11.00;99.90
55211;DHT22;41082;52.822;6.666;2023-03-23T05:32:06;11.00;99.90
55211;DHT22;41082;52.822;6.666;2023-03-23T05:34:33;11.00;99.90
55211;DHT22;41082;52.822;6.666;2023-03-23T05:37:00;11.00;99.90
55211;DHT22;41082;52.822;6.666;2023-03-23T05:39:26;11.00;99.90
55211;DHT22;41082;52.822;6.666;2023-03-23T05:41:52;11.00;99.90
55211;DHT22;41082;52.822;6.666;2023-03-23T05:44:18;10.90;99.90
55211;DHT22;41082;52.822;6.666;2023-03-23T05:46:43;11.00;99.90
55211;DHT22;41082;52.822;6.666;2023-03-23T05:49:09;10.90;99.90
55211;DHT22;41082;52.822;6.666;2023-03-23T05:51:35;11.00;99.90
55211;DHT22;41082;52.822;6.666;2023-03-23T05:54:01;10.90;99.90
55211;DHT22;41082;52.822;6.666;2023-03-23T05:56:27;10.90;99.90
55211;DHT22;41082;52.822;6.666;2023-03-23T05:58:54;10.90;99.90
55211;DHT22;41082;52.822;6.666;2023-03-23T06:01:19;10.90;99.90
55211;DHT22;41082;52.822;6.666;2023-03-23T06:03:45;11.00;99.90
55211;DHT22;41082;52.822;6.666;2023-03-23T06:06:11;10.90;99.90
55211;DHT22;41082;52.822;6.666;2023-03-23T06:08:37;10.90;99.90
55211;DHT22;41082;52.822;6.666;2023-03-23T06:11:04;11.00;99.90
55211;DHT22;41082;52.822;6.666;2023-03-23T06:13:29;11.00;99.90
55211;DHT22;41082;52.822;6.666;2023-03-23T06:15:56;11.10;99.90
55211;DHT22;41082;52.822;6.666;2023-03-23T06:18:25;11.00;99.90
55211;DHT22;41082;52.822;6.666;2023-03-23T06:20:52;11.00;99.90
55211;DHT22;41082;52.822;6.666;2023-03-23T06:23:18;11.00;99.90
55211;DHT22;41082;52.822;6.666;2023-03-23T06:25:44;10.90;99.90
55211;DHT22;41082;52.822;6.666;2023-03-23T06:28:10;10.90;99.90
55211;DHT22;41082;52.822;6.666;2023-03-23T06:30:38;11.00;99.90
55211;DHT22;41082;52.822;6.666;2023-03-23T06:33:05;10.80;99.90
55211;DHT22;41082;52.822;6.666;2023-03-23T06:35:31;10.90;99.90
55211;DHT22;41082;52.822;6.666;2023-03-23T06:37:57;10.90;99.90
55211;DHT22;41082;52.822;6.666;2023-03-23T06:40:27;10.90;99.90
55211;DHT22;41082;52.822;6.666;2023-03-23T06:42:53;11.00;99.90
55211;DHT22;41082;52.822;6.666;2023-03-23T06:45:18;10.90;99.90
55211;DHT22;41082;52.822;6.666;2023-03-23T06:47:46;10.90;99.90
55211;DHT22;41082;52.822;6.666;2023-03-23T06:50:15;10.90;99.90
55211;DHT22;41082;52.822;6.666;2023-03-23T06:52:45;10.90;99.90
55211;DHT22;41082;52.822;6.666;2023-03-23T06:55:11;10.80;99.90
55211;DHT22;41082;52.822;6.666;2023-03-23T06:57:37;10.90;99.90
55211;DHT22;41082;52.822;6.666;2023-03-23T07:00:03;10.80;99.90
55211;DHT22;41082;52.822;6.666;2023-03-23T07:02:31;10.90;99.90
55211;DHT22;41082;52.822;6.666;2023-03-23T07:04:56;10.90;99.90
55211;DHT22;41082;52.822;6.666;2023-03-23T07:07:22;10.90;99.90
55211;DHT22;41082;52.822;6.666;2023-03-23T07:09:48;10.90;99.90
55211;DHT22;41082;52.822;6.666;2023-03-23T07:12:14;11.00;99.90
55211;DHT22;41082;52.822;6.666;2023-03-23T07:14:39;11.00;99.90
55211;DHT22;41082;52.822;6.666;2023-03-23T07:17:05;11.00;99.90
55211;DHT22;41082;52.822;6.666;2023-03-23T07:19:32;11.00;99.90
55211;DHT22;41082;52.822;6.666;2023-03-23T07:21:58;11.10;99.90
55211;DHT22;41082;52.822;6.666;2023-03-23T07:24:24;11.20;99.90
55211;DHT22;41082;52.822;6.666;2023-03-23T07:26:50;11.20;99.90
55211;DHT22;41082;52.822;6.666;2023-03-23T07:29:16;11.20;99.90
55211;DHT22;41082;52.822;6.666;2023-03-23T07:31:41;11.30;99.90
55211;DHT22;41082;52.822;6.666;2023-03-23T07:34:07;11.20;99.90
55211;DHT22;41082;52.822;6.666;2023-03-23T07:36:33;11.30;99.90
55211;DHT22;41082;52.822;6.666;2023-03-23T07:39:03;11.30;99.90
55211;DHT22;41082;52.822;6.666;2023-03-23T07:41:31;11.40;99.90
55211;DHT22;41082;52.822;6.666;2023-03-23T07:43:56;11.50;99.90
55211;DHT22;41082;52.822;6.666;2023-03-23T07:46:22;11.60;99.90
55211;DHT22;41082;52.822;6.666;2023-03-23T07:48:48;11.60;99.90
55211;DHT22;41082;52.822;6.666;2023-03-23T07:51:15;11.70;99.90
55211;DHT22;41082;52.822;6.666;2023-03-23T07:53:42;11.70;99.90
55211;DHT22;41082;52.822;6.666;2023-03-23T07:56:11;11.80;99.90
55211;DHT22;41082;52.822;6.666;2023-03-23T07:58:37;11.70;99.90
55211;DHT22;41082;52.822;6.666;2023-03-23T08:01:06;11.80;99.90
55211;DHT22;41082;52.822;6.666;2023-03-23T08:03:32;11.80;99.90
55211;DHT22;41082;52.822;6.666;2023-03-23T08:05:59;11.80;99.90
55211;DHT22;41082;52.822;6.666;2023-03-23T08:08:25;11.80;99.90
55211;DHT22;41082;52.822;6.666;2023-03-23T08:10:51;11.80;99.90
55211;DHT22;41082;52.822;6.666;2023-03-23T08:13:17;11.90;99.90
55211;DHT22;41082;52.822;6.666;2023-03-23T08:15:44;11.90;99.90
55211;DHT22;41082;52.822;6.666;2023-03-23T08:18:10;11.90;99.90
55211;DHT22;41082;52.822;6.666;2023-03-23T08:20:36;12.00;99.90
55211;DHT22;41082;52.822;6.666;2023-03-23T08:23:02;12.00;99.90
55211;DHT22;41082;52.822;6.666;2023-03-23T08:25:29;12.10;99.90
55211;DHT22;41082;52.822;6.666;2023-03-23T08:27:57;12.10;99.90
55211;DHT22;41082;52.822;6.666;2023-03-23T08:30:23;12.20;99.90
55211;DHT22;41082;52.822;6.666;2023-03-23T08:32:50;12.20;99.90
55211;DHT22;41082;52.822;6.666;2023-03-23T08:35:18;12.40;99.90
55211;DHT22;41082;52.822;6.666;2023-03-23T08:37:44;12.30;99.90
55211;DHT22;41082;52.822;6.666;2023-03-23T08:40:11;12.30;99.90
55211;DHT22;41082;52.822;6.666;2023-03-23T08:42:41;12.30;99.90
55211;DHT22;41082;52.822;6.666;2023-03-23T08:45:10;12.30;99.90
55211;DHT22;41082;52.822;6.666;2023-03-23T08:47:37;12.30;99.90
55211;DHT22;41082;52.822;6.666;2023-03-23T08:50:05;12.30;99.90
55211;DHT22;41082;52.822;6.666;2023-03-23T08:52:31;12.20;99.90
55211;DHT22;41082;52.822;6.666;2023-03-23T08:54:57;12.20;99.90
55211;DHT22;41082;52.822;6.666;2023-03-23T08:57:24;12.30;99.90
55211;DHT22;41082;52.822;6.666;2023-03-23T08:59:50;12.30;99.90
55211;DHT22;41082;52.822;6.666;2023-03-23T09:02:17;12.40;99.90
55211;DHT22;41082;52.822;6.666;2023-03-23T09:04:43;12.50;99.90
55211;DHT22;41082;52.822;6.666;2023-03-23T09:07:12;12.60;99.90
55211;DHT22;41082;52.822;6.666;2023-03-23T09:09:40;12.60;99.90
55211;DHT22;41082;52.822;6.666;2023-03-23T09:12:07;12.60;99.90
55211;DHT22;41082;52.822;6.666;2023-03-23T09:14:34;12.60;99.90
55211;DHT22;41082;52.822;6.666;2023-03-23T09:17:01;12.70;99.90
55211;DHT22;41082;52.822;6.666;2023-03-23T09:19:28;12.70;99.90
55211;DHT22;41082;52.822;6.666;2023-03-23T09:21:54;12.60;99.90
55211;DHT22;41082;52.822;6.666;2023-03-23T09:24:20;12.60;99.90
55211;DHT22;41082;52.822;6.666;2023-03-23T09:26:46;12.50;99.90
55211;DHT22;41082;52.822;6.666;2023-03-23T09:29:12;12.50;99.90
55211;DHT22;41082;52.822;6.666;2023-03-23T09:31:38;12.40;99.90
55211;DHT22;41082;52.822;6.666;2023-03-23T09:34:06;12.30;99.90
55211;DHT22;41082;52.822;6.666;2023-03-23T09:36:32;12.20;99.90
55211;DHT22;41082;52.822;6.666;2023-03-23T09:38:58;12.20;99.90
55211;DHT22;41082;52.822;6.666;2023-03-23T09:41:47;12.40;99.90
55211;DHT22;41082;52.822;6.666;2023-03-23T09:47:04;12.90;99.90
55211;DHT22;41082;52.822;6.666;2023-03-23T09:49:52;13.10;99.90
55211;DHT22;41082;52.822;6.666;2023-03-23T09:52:19;13.20;99.90
55211;DHT22;41082;52.822;6.666;2023-03-23T09:54:50;13.20;99.90
55211;DHT22;41082;52.822;6.666;2023-03-23T09:59:55;13.10;99.90
55211;DHT22;41082;52.822;6.666;2023-03-23T10:03:02;13.00;99.90
55211;DHT22;41082;52.822;6.666;2023-03-23T10:05:36;12.90;99.90
55211;DHT22;41082;52.822;6.666;2023-03-23T10:08:10;13.00;99.90
55211;DHT22;41082;52.822;6.666;2023-03-23T10:11:01;13.20;99.90
55211;DHT22;41082;52.822;6.666;2023-03-23T10:16:36;13.60;99.90
55211;DHT22;41082;52.822;6.666;2023-03-23T10:19:15;13.70;99.90
55211;DHT22;41082;52.822;6.666;2023-03-23T10:21:51;13.80;99.90
55211;DHT22;41082;52.822;6.666;2023-03-23T10:24:21;13.70;99.90
55211;DHT22;41082;52.822;6.666;2023-03-23T10:29:47;13.60;99.90
55211;DHT22;41082;52.822;6.666;2023-03-23T10:32:34;13.70;99.90
55211;DHT22;41082;52.822;6.666;2023-03-23T10:35:05;14.10;99.90
55211;DHT22;41082;52.822;6.666;2023-03-23T10:37:36;14.30;99.90
55211;DHT22;41082;52.822;6.666;2023-03-23T10:40:04;14.30;99.90
55211;DHT22;41082;52.822;6.666;2023-03-23T10:42:37;14.20;99.90
55211;DHT22;41082;52.822;6.666;2023-03-23T10:45:25;14.10;99.90
55211;DHT22;41082;52.822;6.666;2023-03-23T10:47:57;13.80;99.90
55211;DHT22;41082;52.822;6.666;2023-03-23T10:50:31;13.70;99.90
55211;DHT22;41082;52.822;6.666;2023-03-23T10:52:59;13.60;99.90
55211;DHT22;41082;52.822;6.666;2023-03-23T10:55:39;13.40;99.90
55211;DHT22;41082;52.822;6.666;2023-03-23T10:58:21;13.40;99.90
55211;DHT22;41082;52.822;6.666;2023-03-23T11:00:47;13.30;99.90
55211;DHT22;41082;52.822;6.666;2023-03-23T11:05:49;13.30;99.90
55211;DHT22;41082;52.822;6.666;2023-03-23T11:08:30;13.20;99.90
55211;DHT22;41082;52.822;6.666;2023-03-23T11:11:20;13.20;99.90
55211;DHT22;41082;52.822;6.666;2023-03-23T11:13:49;13.20;99.90
55211;DHT22;41082;52.822;6.666;2023-03-23T11:16:32;13.10;99.90
55211;DHT22;41082;52.822;6.666;2023-03-23T11:19:00;13.30;99.90
55211;DHT22;41082;52.822;6.666;2023-03-23T11:21:38;13.70;99.90
55211;DHT22;41082;52.822;6.666;2023-03-23T11:24:05;14.10;99.90
55211;DHT22;41082;52.822;6.666;2023-03-23T11:26:33;14.30;99.90
55211;DHT22;41082;52.822;6.666;2023-03-23T11:29:05;14.40;99.90
55211;DHT22;41082;52.822;6.666;2023-03-23T11:31:38;14.30;99.90
55211;DHT22;41082;52.822;6.666;2023-03-23T11:34:14;14.20;99.90
55211;DHT22;41082;52.822;6.666;2023-03-23T11:36:48;14.30;99.90
55211;DHT22;41082;52.822;6.666;2023-03-23T11:39:47;14.50;99.90
55211;DHT22;41082;52.822;6.666;2023-03-23T11:42:20;14.60;99.90
55211;DHT22;41082;52.822;6.666;2023-03-23T11:44:46;14.70;99.90
55211;DHT22;41082;52.822;6.666;2023-03-23T11:47:28;14.70;99.90
55211;DHT22;41082;52.822;6.666;2023-03-23T11:53:10;14.90;99.90
55211;DHT22;41082;52.822;6.666;2023-03-23T11:58:18;14.80;99.90
55211;DHT22;41082;52.822;6.666;2023-03-23T12:03:56;14.70;99.90
55211;DHT22;41082;52.822;6.666;2023-03-23T12:09:25;14.90;99.90
55211;DHT22;41082;52.822;6.666;2023-03-23T12:18:06;15.50;99.90
55211;DHT22;41082;52.822;6.666;2023-03-23T12:20:48;15.60;99.90
55211;DHT22;41082;52.822;6.666;2023-03-23T12:23:21;15.50;99.90
55211;DHT22;41082;52.822;6.666;2023-03-23T12:28:54;15.20;99.90
55211;DHT22;41082;52.822;6.666;2023-03-23T12:50:21;15.30;99.90
55211;DHT22;41082;52.822;6.666;2023-03-23T12:52:54;15.40;99.90
55211;DHT22;41082;52.822;6.666;2023-03-23T12:55:53;15.50;99.90
55211;DHT22;41082;52.822;6.666;2023-03-23T12:58:21;15.40;99.90
55211;DHT22;41082;52.822;6.666;2023-03-23T13:03:54;15.10;99.90
55211;DHT22;41082;52.822;6.666;2023-03-23T13:09:32;15.00;99.90
55211;DHT22;41082;52.822;6.666;2023-03-23T13:12:02;15.10;99.90
55211;DHT22;41082;52.822;6.666;2023-03-23T13:14:41;15.30;99.90
55211;DHT22;41082;52.822;6.666;2023-03-23T13:28:31;16.00;99.90
55211;DHT22;41082;52.822;6.666;2023-03-23T13:31:03;16.10;99.90
55211;DHT22;41082;52.822;6.666;2023-03-23T13:33:32;16.10;99.00
55211;DHT22;41082;52.822;6.666;2023-03-23T13:36:11;16.10;99.30
55211;DHT22;41082;52.822;6.666;2023-03-23T13:38:39;16.00;98.60
55211;DHT22;41082;52.822;6.666;2023-03-23T13:41:12;15.90;98.50
55211;DHT22;41082;52.822;6.666;2023-03-23T13:43:40;15.70;98.50
55211;DHT22;41082;52.822;6.666;2023-03-23T13:46:09;15.70;97.70
55211;DHT22;41082;52.822;6.666;2023-03-23T13:48:49;15.70;98.40
55211;DHT22;41082;52.822;6.666;2023-03-23T13:51:31;15.70;99.10
55211;DHT22;41082;52.822;6.666;2023-03-23T13:57:33;15.50;98.00
55211;DHT22;41082;52.822;6.666;2023-03-23T14:05:41;15.10;99.90
55211;DHT22;41082;52.822;6.666;2023-03-23T14:10:56;15.10;99.90
55211;DHT22;41082;52.822;6.666;2023-03-23T14:16:37;14.90;99.90
55211;DHT22;41082;52.822;6.666;2023-03-23T14:19:14;14.70;99.90
55211;DHT22;41082;52.822;6.666;2023-03-23T14:21:42;14.10;99.90
55211;DHT22;41082;52.822;6.666;2023-03-23T14:27:10;13.20;99.90
55211;DHT22;41082;52.822;6.666;2023-03-23T14:29:36;12.90;99.90
55211;DHT22;41082;52.822;6.666;2023-03-23T14:32:06;12.80;99.90
55211;DHT22;41082;52.822;6.666;2023-03-23T14:34:33;12.80;99.90
55211;DHT22;41082;52.822;6.666;2023-03-23T14:36:59;12.90;99.90
55211;DHT22;41082;52.822;6.666;2023-03-23T14:39:33;12.90;99.90
55211;DHT22;41082;52.822;6.666;2023-03-23T14:42:06;12.90;99.90
55211;DHT22;41082;52.822;6.666;2023-03-23T14:44:37;13.00;99.90
55211;DHT22;41082;52.822;6.666;2023-03-23T14:47:13;13.00;99.90
55211;DHT22;41082;52.822;6.666;2023-03-23T14:49:42;13.10;99.90
55211;DHT22;41082;52.822;6.666;2023-03-23T14:52:16;13.30;99.90
55211;DHT22;41082;52.822;6.666;2023-03-23T14:54:43;13.40;99.90
55211;DHT22;41082;52.822;6.666;2023-03-23T14:57:17;13.50;99.90
55211;DHT22;41082;52.822;6.666;2023-03-23T14:59:45;13.60;99.90
55211;DHT22;41082;52.822;6.666;2023-03-23T15:02:17;13.60;99.90
55211;DHT22;41082;52.822;6.666;2023-03-23T15:04:48;13.70;99.90
55211;DHT22;41082;52.822;6.666;2023-03-23T15:07:16;13.70;99.90
55211;DHT22;41082;52.822;6.666;2023-03-23T15:09:44;13.80;99.90
55211;DHT22;41082;52.822;6.666;2023-03-23T15:12:22;13.70;99.90
55211;DHT22;41082;52.822;6.666;2023-03-23T15:14:55;13.70;99.90
55211;DHT22;41082;52.822;6.666;2023-03-23T15:17:23;13.70;99.90
55211;DHT22;41082;52.822;6.666;2023-03-23T15:19:51;13.70;99.90
55211;DHT22;41082;52.822;6.666;2023-03-23T15:22:26;13.80;99.90
55211;DHT22;41082;52.822;6.666;2023-03-23T15:25:22;13.90;99.90
55211;DHT22;41082;52.822;6.666;2023-03-23T15:27:51;13.90;99.90
55211;DHT22;41082;52.822;6.666;2023-03-23T15:33:01;13.90;99.90
55211;DHT22;41082;52.822;6.666;2023-03-23T15:35:27;13.90;99.90
55211;DHT22;41082;52.822;6.666;2023-03-23T15:38:01;13.90;99.90
55211;DHT22;41082;52.822;6.666;2023-03-23T15:40:31;13.90;99.90
55211;DHT22;41082;52.822;6.666;2023-03-23T15:43:19;13.80;99.90
55211;DHT22;41082;52.822;6.666;2023-03-23T15:46:18;13.80;99.90
55211;DHT22;41082;52.822;6.666;2023-03-23T15:48:48;13.80;99.90
55211;DHT22;41082;52.822;6.666;2023-03-23T15:51:16;13.70;99.90
55211;DHT22;41082;52.822;6.666;2023-03-23T15:53:42;13.80;99.90
55211;DHT22;41082;52.822;6.666;2023-03-23T15:56:10;13.80;99.90
55211;DHT22;41082;52.822;6.666;2023-03-23T15:58:36;13.90;99.90
55211;DHT22;41082;52.822;6.666;2023-03-23T16:01:06;14.00;99.90
55211;DHT22;41082;52.822;6.666;2023-03-23T16:06:02;14.00;99.90
55211;DHT22;41082;52.822;6.666;2023-03-23T16:08:28;14.00;99.90
55211;DHT22;41082;52.822;6.666;2023-03-23T16:10:54;14.00;99.90
55211;DHT22;41082;52.822;6.666;2023-03-23T16:13:19;14.00;99.90
55211;DHT22;41082;52.822;6.666;2023-03-23T16:15:46;13.90;99.90
55211;DHT22;41082;52.822;6.666;2023-03-23T16:18:19;13.90;99.90
55211;DHT22;41082;52.822;6.666;2023-03-23T16:20:49;13.90;99.90
55211;DHT22;41082;52.822;6.666;2023-03-23T16:23:15;13.90;99.90
55211;DHT22;41082;52.822;6.666;2023-03-23T16:25:41;13.90;99.90
55211;DHT22;41082;52.822;6.666;2023-03-23T16:28:11;13.80;99.90
55211;DHT22;41082;52.822;6.666;2023-03-23T16:30:37;13.80;99.90
55211;DHT22;41082;52.822;6.666;2023-03-23T16:33:03;13.70;99.90
55211;DHT22;41082;52.822;6.666;2023-03-23T16:35:28;13.70;99.90
55211;DHT22;41082;52.822;6.666;2023-03-23T16:37:55;13.70;99.90
55211;DHT22;41082;52.822;6.666;2023-03-23T16:40:21;13.70;99.90
55211;DHT22;41082;52.822;6.666;2023-03-23T16:42:48;13.70;99.90
55211;DHT22;41082;52.822;6.666;2023-03-23T16:45:15;13.70;99.90
55211;DHT22;41082;52.822;6.666;2023-03-23T16:47:41;13.70;99.90
55211;DHT22;41082;52.822;6.666;2023-03-23T16:50:09;13.70;99.90
55211;DHT22;41082;52.822;6.666;2023-03-23T16:52:37;13.70;99.90
55211;DHT22;41082;52.822;6.666;2023-03-23T16:55:04;13.60;99.90
55211;DHT22;41082;52.822;6.666;2023-03-23T16:57:33;13.50;99.90
55211;DHT22;41082;52.822;6.666;2023-03-23T17:00:00;13.40;99.90
55211;DHT22;41082;52.822;6.666;2023-03-23T17:02:25;13.40;99.90
55211;DHT22;41082;52.822;6.666;2023-03-23T17:04:51;13.30;99.90
55211;DHT22;41082;52.822;6.666;2023-03-23T17:07:17;13.30;99.90
55211;DHT22;41082;52.822;6.666;2023-03-23T17:09:43;13.20;99.90
55211;DHT22;41082;52.822;6.666;2023-03-23T17:12:09;13.10;99.90
55211;DHT22;41082;52.822;6.666;2023-03-23T17:14:35;13.10;99.90
55211;DHT22;41082;52.822;6.666;2023-03-23T17:17:01;13.10;99.90
55211;DHT22;41082;52.822;6.666;2023-03-23T17:19:27;13.00;99.90
55211;DHT22;41082;52.822;6.666;2023-03-23T17:21:52;12.90;99.90
55211;DHT22;41082;52.822;6.666;2023-03-23T17:24:18;12.90;99.90
55211;DHT22;41082;52.822;6.666;2023-03-23T17:26:44;12.90;99.90
55211;DHT22;41082;52.822;6.666;2023-03-23T17:29:10;12.80;99.90
55211;DHT22;41082;52.822;6.666;2023-03-23T17:31:36;12.80;99.90
55211;DHT22;41082;52.822;6.666;2023-03-23T17:34:02;12.80;99.90
55211;DHT22;41082;52.822;6.666;2023-03-23T17:36:27;12.70;99.90
55211;DHT22;41082;52.822;6.666;2023-03-23T17:38:53;12.70;99.90
55211;DHT22;41082;52.822;6.666;2023-03-23T17:41:19;12.70;99.90